Time;durP1;ratioP1;P1;durP2;ratioP2;P2;SDS_P1;SDS_P2;PMS_P1;PMS_P2;Temp;Humidity;BMP_temperature;BMP_pressure;BME280_temperature;BME280_humidity;BME280_pressure;Samples;Min_cycle;Max_cycle;Signal;HPM_P1;HPM_P2
2023/01/09 00:01:18;;;;;;;2.73;1.60;;;8.50;98.00;;;;;;4973129;28;20500;-71
2023/01/09 00:03:47;;;;;;;3.10;1.83;;;8.40;98.00;;;;;;4956710;28;20475;-71
2023/01/09 00:06:14;;;;;;;2.67;1.70;;;8.30;98.00;;;;;;4972985;28;20508;-70
2023/01/09 00:08:41;;;;;;;2.93;1.90;;;8.30;98.00;;;;;;4972988;28;20456;-70
2023/01/09 00:11:09;;;;;;;2.03;1.60;;;8.30;98.00;;;;;;4972951;28;20467;-70
2023/01/09 00:13:37;;;;;;;6.53;2.03;;;8.30;98.00;;;;;;4955964;28;20999;-70
2023/01/09 00:16:05;;;;;;;2.27;1.53;;;8.30;98.00;;;;;;4973138;28;20856;-71
2023/01/09 00:18:32;;;;;;;2.13;1.70;;;8.30;98.00;;;;;;4973085;28;20560;-71
2023/01/09 00:21:01;;;;;;;2.57;1.70;;;8.40;98.00;;;;;;4955670;28;20876;-70
2023/01/09 00:23:28;;;;;;;1.60;1.60;;;8.40;98.00;;;;;;4972833;28;20454;-71
2023/01/09 00:26:03;;;;;;;2.27;1.50;;;8.30;98.00;;;;;;4972728;28;20460;-71
2023/01/09 00:28:30;;;;;;;1.60;1.40;;;8.40;98.00;;;;;;4972754;28;20978;-70
2023/01/09 00:30:58;;;;;;;1.63;1.40;;;8.40;98.00;;;;;;4972957;28;20820;-70
2023/01/09 00:33:28;;;;;;;2.43;1.70;;;8.40;98.00;;;;;;4972526;28;20495;-70
2023/01/09 00:35:55;;;;;;;2.93;1.60;;;8.50;98.00;;;;;;4972769;28;20472;-71
2023/01/09 00:38:24;;;;;;;2.00;1.50;;;8.50;98.00;;;;;;4955161;28;20466;-70
2023/01/09 00:40:51;;;;;;;1.70;1.40;;;8.50;98.00;;;;;;4972386;28;20467;-70
2023/01/09 00:43:20;;;;;;;1.77;1.57;;;8.50;98.00;;;;;;4972086;28;20464;-70
2023/01/09 00:45:48;;;;;;;1.67;1.57;;;8.50;98.00;;;;;;4955405;28;20457;-70
2023/01/09 00:48:25;;;;;;;6.90;1.80;;;8.50;98.00;;;;;;4972346;28;20460;-71
2023/01/09 00:50:53;;;;;;;2.40;1.87;;;8.50;98.00;;;;;;4972405;28;20943;-71
2023/01/09 00:53:25;;;;;;;4.50;2.07;;;8.50;98.00;;;;;;4972383;28;20856;-70
2023/01/09 00:55:52;;;;;;;5.87;1.60;;;8.40;98.00;;;;;;4972308;28;20485;-71
2023/01/09 00:58:19;;;;;;;2.07;1.40;;;8.30;98.00;;;;;;4972241;28;20962;-70
2023/01/09 01:00:46;;;;;;;1.87;1.43;;;8.40;98.00;;;;;;4972268;28;20463;-71
2023/01/09 01:03:13;;;;;;;1.80;1.67;;;8.40;98.00;;;;;;4972502;28;20460;-71
2023/01/09 01:08:35;;;;;;;3.87;2.03;;;8.30;98.00;;;;;;4976374;28;21080;-70
2023/01/09 01:11:07;;;;;;;3.87;1.90;;;8.20;98.00;;;;;;4959464;28;20490;-71
2023/01/09 01:13:34;;;;;;;7.37;1.97;;;8.10;98.00;;;;;;4976268;28;20471;-71
2023/01/09 01:16:04;;;;;;;2.07;1.60;;;8.10;98.00;;;;;;4976179;28;20493;-71
2023/01/09 01:18:31;;;;;;;2.93;1.70;;;8.10;98.00;;;;;;4976322;28;20459;-71
2023/01/09 01:20:59;;;;;;;3.43;2.00;;;8.10;98.00;;;;;;4976174;28;20454;-71
2023/01/09 01:23:27;;;;;;;1.73;1.47;;;8.10;98.00;;;;;;4976058;28;20535;-70
2023/01/09 01:25:54;;;;;;;1.47;1.20;;;8.00;98.00;;;;;;4975985;28;20460;-71
2023/01/09 01:28:21;;;;;;;1.47;1.40;;;8.10;98.00;;;;;;4975788;28;20458;-71
2023/01/09 01:30:49;;;;;;;1.70;1.40;;;8.10;98.00;;;;;;4975821;28;20634;-70
2023/01/09 01:33:16;;;;;;;1.47;1.30;;;8.20;98.00;;;;;;4975804;28;20880;-71
2023/01/09 01:35:43;;;;;;;1.93;1.40;;;8.20;98.00;;;;;;4958688;28;20500;-71
2023/01/09 01:38:10;;;;;;;1.80;1.30;;;8.20;98.00;;;;;;4975782;28;20460;-71
2023/01/09 01:40:39;;;;;;;1.87;1.60;;;8.20;98.00;;;;;;4975597;28;20547;-71
2023/01/09 01:43:09;;;;;;;1.30;1.30;;;8.30;98.00;;;;;;4975791;28;20474;-71
2023/01/09 01:45:39;;;;;;;1.50;1.20;;;8.30;98.00;;;;;;4975441;28;21057;-71
2023/01/09 01:48:09;;;;;;;2.50;1.10;;;8.30;98.00;;;;;;4975531;28;20463;-71
2023/01/09 01:50:40;;;;;;;1.63;1.20;;;8.30;98.00;;;;;;4975414;28;20489;-71
2023/01/09 01:53:13;;;;;;;1.30;1.20;;;8.30;98.00;;;;;;4975534;28;20519;-71
2023/01/09 01:55:44;;;;;;;1.77;1.20;;;8.30;98.00;;;;;;4975468;28;20487;-70
2023/01/09 01:58:15;;;;;;;1.20;1.10;;;8.30;98.00;;;;;;4958368;28;20469;-71
2023/01/09 02:00:45;;;;;;;1.70;1.20;;;8.50;98.00;;;;;;4975274;28;20489;-71
2023/01/09 02:03:15;;;;;;;1.20;1.00;;;8.50;98.00;;;;;;4975063;28;20760;-71
2023/01/09 02:05:43;;;;;;;1.10;0.90;;;8.50;98.00;;;;;;4958543;28;20830;-71
2023/01/09 02:08:10;;;;;;;1.27;1.07;;;8.50;98.00;;;;;;4975239;28;20464;-70
2023/01/09 02:10:39;;;;;;;1.57;1.10;;;8.50;98.00;;;;;;4975237;28;20462;-71
2023/01/09 02:13:10;;;;;;;2.33;1.10;;;8.50;98.00;;;;;;4975292;28;20457;-71
2023/01/09 02:15:47;;;;;;;1.73;1.20;;;8.60;98.00;;;;;;4975085;28;20497;-71
2023/01/09 02:18:35;;;;;;;1.10;1.00;;;8.60;98.00;;;;;;4958328;28;20464;-71
2023/01/09 02:21:06;;;;;;;1.20;1.03;;;8.60;98.00;;;;;;4975077;28;20468;-71
2023/01/09 02:24:14;;;;;;;1.20;1.10;;;8.60;98.00;;;;;;4974901;28;20465;-71
2023/01/09 02:27:01;;;;;;;1.10;1.00;;;8.50;98.00;;;;;;4974914;28;20472;-71
2023/01/09 02:30:08;;;;;;;1.10;1.03;;;8.50;98.00;;;;;;4974758;28;20459;-71
2023/01/09 02:32:46;;;;;;;1.30;1.10;;;8.50;98.00;;;;;;4974695;28;20492;-71
2023/01/09 02:35:51;;;;;;;1.17;1.00;;;8.50;98.00;;;;;;4974700;28;20488;-71
2023/01/09 02:38:27;;;;;;;1.43;1.20;;;8.50;98.00;;;;;;4974686;28;20464;-71
2023/01/09 02:41:02;;;;;;;1.57;1.40;;;8.50;98.00;;;;;;4974580;28;20468;-71
2023/01/09 02:43:30;;;;;;;1.30;1.20;;;8.50;98.00;;;;;;4957334;28;20464;-71
2023/01/09 02:45:57;;;;;;;1.10;1.00;;;8.60;98.00;;;;;;4974563;28;20464;-71
2023/01/09 02:48:25;;;;;;;1.30;1.10;;;8.60;98.00;;;;;;4974477;28;20461;-71
2023/01/09 02:51:01;;;;;;;1.10;1.00;;;8.60;98.00;;;;;;4974419;28;20461;-70
2023/01/09 02:54:03;;;;;;;3.83;1.30;;;8.60;98.00;;;;;;4974502;28;20472;-71
2023/01/09 02:56:44;;;;;;;1.40;1.00;;;8.70;98.00;;;;;;4956975;28;20567;-71
2023/01/09 02:59:22;;;;;;;1.20;1.00;;;8.70;98.00;;;;;;4973837;28;20468;-71
2023/01/09 03:02:03;;;;;;;1.60;1.03;;;8.60;98.00;;;;;;4974413;28;20477;-71
2023/01/09 03:04:42;;;;;;;1.60;1.17;;;8.60;98.00;;;;;;4974121;28;20463;-71
2023/01/09 03:07:15;;;;;;;1.40;1.13;;;8.70;98.00;;;;;;4974261;28;20510;-71
2023/01/09 03:09:43;;;;;;;1.30;1.10;;;8.70;98.00;;;;;;4974153;28;20468;-71
2023/01/09 03:12:17;;;;;;;1.63;1.20;;;8.60;98.00;;;;;;4974178;28;20676;-71
2023/01/09 03:14:48;;;;;;;1.10;1.00;;;8.70;98.00;;;;;;4957541;28;20498;-71
2023/01/09 03:17:22;;;;;;;1.20;1.00;;;8.70;98.00;;;;;;4974185;28;20464;-71
2023/01/09 03:19:52;;;;;;;1.20;1.03;;;8.80;98.00;;;;;;4973969;28;20472;-71
2023/01/09 03:22:19;;;;;;;1.97;1.10;;;8.70;98.00;;;;;;4973860;28;20880;-71
2023/01/09 03:24:47;;;;;;;1.60;1.10;;;8.70;98.00;;;;;;4973869;28;20536;-71
2023/01/09 03:27:15;;;;;;;1.87;1.23;;;8.70;98.00;;;;;;4973329;28;20470;-71
2023/01/09 03:29:42;;;;;;;1.20;1.00;;;8.60;98.00;;;;;;4972439;28;20869;-71
2023/01/09 03:32:09;;;;;;;1.10;1.00;;;8.50;98.00;;;;;;4973642;28;20460;-72
2023/01/09 03:34:36;;;;;;;1.30;1.10;;;8.50;98.00;;;;;;4973468;28;20869;-71
2023/01/09 03:37:04;;;;;;;1.40;1.20;;;8.40;98.00;;;;;;4973645;28;20528;-71
2023/01/09 03:39:32;;;;;;;1.40;1.23;;;8.40;98.00;;;;;;4973398;28;20539;-70
2023/01/09 03:41:59;;;;;;;1.40;1.00;;;8.40;98.00;;;;;;4973338;28;20880;-71
2023/01/09 03:44:26;;;;;;;1.10;1.03;;;8.40;98.00;;;;;;4973587;28;20983;-71
2023/01/09 03:46:53;;;;;;;1.67;1.00;;;8.40;98.00;;;;;;4973454;28;20476;-71
2023/01/09 03:49:21;;;;;;;1.10;1.00;;;8.40;98.00;;;;;;4973447;28;20848;-71
2023/01/09 03:51:48;;;;;;;1.10;0.97;;;8.30;98.00;;;;;;4956317;28;20559;-71
2023/01/09 03:54:18;;;;;;;1.10;0.93;;;8.20;98.00;;;;;;4956059;28;20457;-71
2023/01/09 03:56:45;;;;;;;1.10;0.90;;;8.30;98.00;;;;;;4973501;28;20843;-70
2023/01/09 03:59:12;;;;;;;1.10;0.90;;;8.20;98.00;;;;;;4973089;28;20466;-70
2023/01/09 04:01:39;;;;;;;1.10;1.00;;;8.20;98.00;;;;;;4973045;28;20822;-71
2023/01/09 04:04:06;;;;;;;1.10;1.00;;;8.20;98.00;;;;;;4973127;28;20454;-71
2023/01/09 04:06:33;;;;;;;1.10;1.00;;;8.10;98.00;;;;;;4955885;28;20552;-70
2023/01/09 04:09:00;;;;;;;1.10;1.00;;;8.10;98.00;;;;;;4973145;28;20452;-70
2023/01/09 04:11:28;;;;;;;1.10;1.00;;;8.10;98.00;;;;;;4972966;28;20953;-71
2023/01/09 04:13:56;;;;;;;1.10;0.90;;;8.00;98.00;;;;;;4973402;28;20965;-71
2023/01/09 04:16:23;;;;;;;1.10;1.00;;;8.00;98.00;;;;;;4956114;28;20507;-71
2023/01/09 04:18:50;;;;;;;1.10;1.00;;;8.10;98.00;;;;;;4955908;28;20502;-71
2023/01/09 04:21:17;;;;;;;1.10;0.93;;;8.10;98.00;;;;;;4973428;28;20460;-71
2023/01/09 04:23:44;;;;;;;1.10;1.00;;;8.00;98.00;;;;;;4974046;28;20472;-70
2023/01/09 04:26:11;;;;;;;1.10;0.90;;;8.00;98.00;;;;;;4973505;28;20549;-71
2023/01/09 04:28:40;;;;;;;1.10;1.00;;;7.90;98.00;;;;;;4956255;28;20460;-71
2023/01/09 04:31:08;;;;;;;1.10;1.10;;;7.90;98.00;;;;;;4972671;28;20465;-71
2023/01/09 04:33:36;;;;;;;1.10;1.00;;;7.90;98.00;;;;;;4972627;28;20459;-71
2023/01/09 04:36:03;;;;;;;1.10;1.00;;;8.00;98.00;;;;;;4972614;28;20583;-71
2023/01/09 04:38:30;;;;;;;1.60;1.00;;;8.10;98.00;;;;;;4972553;28;20997;-70
2023/01/09 04:40:57;;;;;;;1.10;1.00;;;8.10;98.00;;;;;;4972239;28;20478;-71
2023/01/09 04:43:24;;;;;;;1.10;0.90;;;8.10;98.00;;;;;;4972523;28;20473;-71
2023/01/09 04:45:52;;;;;;;2.30;1.10;;;8.00;98.00;;;;;;4972487;28;20460;-70
2023/01/09 04:48:19;;;;;;;1.10;0.90;;;8.10;98.00;;;;;;4972354;28;20524;-71
2023/01/09 04:50:46;;;;;;;1.10;1.00;;;8.10;98.00;;;;;;4972536;28;20466;-70
2023/01/09 04:53:13;;;;;;;1.10;0.90;;;8.00;98.00;;;;;;4972596;28;21005;-71
2023/01/09 04:55:48;;;;;;;1.10;0.90;;;7.90;98.00;;;;;;4972389;28;20487;-70
2023/01/09 04:58:16;;;;;;;1.10;0.90;;;8.00;98.00;;;;;;4972458;28;20457;-70
2023/01/09 05:00:42;;;;;;;1.10;1.00;;;7.90;98.00;;;;;;4972301;28;20930;-71
2023/01/09 05:03:11;;;;;;;1.10;1.00;;;7.80;98.00;;;;;;4972412;28;20458;-71
2023/01/09 05:05:38;;;;;;;1.10;0.90;;;7.80;98.00;;;;;;4972290;28;20454;-71
2023/01/09 05:08:06;;;;;;;1.10;1.00;;;7.80;98.00;;;;;;4972344;28;20456;-71
2023/01/09 05:10:33;;;;;;;1.10;1.00;;;7.60;98.00;;;;;;4972178;28;20489;-71
2023/01/09 05:13:00;;;;;;;1.10;0.90;;;7.60;98.00;;;;;;4972419;28;20454;-70
2023/01/09 05:15:29;;;;;;;1.10;0.90;;;7.50;98.00;;;;;;4939675;28;20483;-71
2023/01/09 05:17:56;;;;;;;1.10;0.90;;;7.40;98.00;;;;;;4972521;28;20458;-71
2023/01/09 05:20:25;;;;;;;1.10;0.90;;;7.40;98.00;;;;;;4972310;28;20478;-70
2023/01/09 05:22:52;;;;;;;1.10;0.90;;;7.30;98.00;;;;;;4955190;28;20473;-70
2023/01/09 05:25:19;;;;;;;1.10;0.90;;;7.30;98.00;;;;;;4971724;28;20451;-71
2023/01/09 05:27:46;;;;;;;1.10;0.90;;;7.20;98.00;;;;;;4972124;28;20470;-71
2023/01/09 05:30:14;;;;;;;1.50;1.00;;;7.20;98.00;;;;;;4970871;28;20813;-71
2023/01/09 05:32:41;;;;;;;1.13;1.00;;;7.20;98.00;;;;;;4971060;28;20463;-71
2023/01/09 05:35:08;;;;;;;1.10;1.00;;;7.10;98.00;;;;;;4972132;28;20454;-71
2023/01/09 05:37:37;;;;;;;1.10;0.90;;;7.10;98.00;;;;;;4971977;28;20460;-70
2023/01/09 05:40:05;;;;;;;1.37;1.00;;;7.00;98.00;;;;;;4970730;28;20841;-70
2023/01/09 05:42:32;;;;;;;1.10;1.00;;;7.00;98.00;;;;;;4971761;28;20476;-71
2023/01/09 05:44:59;;;;;;;1.30;1.03;;;7.00;98.00;;;;;;4972077;28;20461;-71
2023/01/09 05:47:29;;;;;;;1.10;0.90;;;7.00;98.00;;;;;;4971915;28;20481;-71
2023/01/09 05:49:56;;;;;;;1.10;0.90;;;7.00;98.00;;;;;;4971959;28;20462;-71
2023/01/09 05:52:23;;;;;;;1.10;0.90;;;7.10;98.00;;;;;;4972764;28;20470;-71
2023/01/09 05:54:52;;;;;;;1.10;0.90;;;7.10;98.00;;;;;;4975384;28;20530;-71
2023/01/09 05:57:19;;;;;;;1.10;1.00;;;7.10;98.00;;;;;;4974046;28;20981;-70
2023/01/09 05:59:46;;;;;;;1.30;1.00;;;7.00;98.00;;;;;;4975618;28;20915;-70
2023/01/09 06:02:13;;;;;;;1.10;1.00;;;7.00;98.00;;;;;;4975429;28;20474;-70
2023/01/09 06:04:42;;;;;;;1.10;0.90;;;7.00;98.00;;;;;;4975346;28;20461;-70
2023/01/09 06:07:09;;;;;;;1.10;0.90;;;6.90;98.00;;;;;;4973833;28;20550;-70
2023/01/09 06:09:36;;;;;;;1.10;1.00;;;6.80;98.00;;;;;;4974053;28;20462;-71
2023/01/09 06:12:05;;;;;;;1.10;0.90;;;6.80;98.00;;;;;;4975515;28;20803;-70
2023/01/09 06:14:32;;;;;;;1.20;1.00;;;6.70;98.00;;;;;;4975427;28;20466;-70
2023/01/09 06:16:59;;;;;;;1.10;0.90;;;6.60;98.00;;;;;;4975168;28;21009;-70
2023/01/09 06:19:26;;;;;;;1.20;1.10;;;6.60;98.00;;;;;;4975081;28;20511;-71
2023/01/09 06:21:54;;;;;;;1.10;0.90;;;6.60;98.00;;;;;;4974933;28;20463;-70
2023/01/09 06:24:22;;;;;;;1.20;1.00;;;6.60;98.00;;;;;;4975012;28;20476;-70
2023/01/09 06:26:48;;;;;;;1.20;1.03;;;6.50;98.00;;;;;;4975026;28;20512;-70
2023/01/09 06:29:17;;;;;;;1.20;1.00;;;6.50;98.00;;;;;;4974935;28;20967;-71
2023/01/09 06:31:44;;;;;;;1.10;1.00;;;6.50;98.00;;;;;;4973731;28;20461;-70
2023/01/09 06:34:12;;;;;;;1.20;1.10;;;6.50;98.00;;;;;;4974726;28;20469;-70
2023/01/09 06:36:39;;;;;;;1.60;1.20;;;6.50;98.00;;;;;;4974471;28;20523;-70
2023/01/09 06:39:06;;;;;;;1.10;1.00;;;6.50;98.00;;;;;;4974773;28;20510;-70
2023/01/09 06:41:34;;;;;;;1.10;1.00;;;6.50;98.00;;;;;;4973292;28;20834;-70
2023/01/09 06:44:01;;;;;;;1.10;0.90;;;6.50;98.00;;;;;;4974574;28;20458;-70
2023/01/09 06:46:29;;;;;;;1.10;0.90;;;6.50;98.00;;;;;;4974499;28;20827;-70
2023/01/09 06:48:57;;;;;;;1.30;1.10;;;6.40;98.00;;;;;;4974529;28;20476;-70
2023/01/09 06:51:24;;;;;;;1.20;1.00;;;6.40;98.00;;;;;;4973273;28;20491;-71
2023/01/09 06:53:51;;;;;;;1.10;1.00;;;6.40;98.00;;;;;;4973210;28;20447;-71
2023/01/09 06:56:18;;;;;;;1.10;0.90;;;6.50;98.00;;;;;;4974444;28;20476;-70
2023/01/09 06:58:45;;;;;;;1.87;1.00;;;6.40;98.00;;;;;;4974169;28;20541;-70
2023/01/09 07:01:13;;;;;;;1.10;1.00;;;6.40;98.00;;;;;;4973089;28;20458;-70
2023/01/09 07:03:42;;;;;;;1.10;1.00;;;6.50;98.00;;;;;;4973949;28;20999;-70
2023/01/09 07:06:10;;;;;;;1.10;0.90;;;6.60;98.00;;;;;;4974199;28;20548;-70
2023/01/09 07:08:37;;;;;;;1.10;1.00;;;6.60;98.00;;;;;;4974032;28;20834;-70
2023/01/09 07:11:04;;;;;;;1.10;1.00;;;6.70;98.00;;;;;;4974221;28;20469;-70
2023/01/09 07:13:31;;;;;;;1.10;0.90;;;6.80;98.00;;;;;;4974290;28;20457;-70
2023/01/09 07:15:58;;;;;;;1.20;1.07;;;6.90;98.00;;;;;;4974283;28;20492;-70
2023/01/09 07:18:25;;;;;;;1.20;1.00;;;6.90;98.00;;;;;;4973897;28;20464;-70
2023/01/09 07:20:53;;;;;;;1.10;0.90;;;6.90;98.00;;;;;;4973967;28;20461;-70
2023/01/09 07:23:20;;;;;;;1.10;0.90;;;6.90;98.00;;;;;;4973844;28;21030;-71
2023/01/09 07:25:48;;;;;;;1.10;1.00;;;6.90;98.00;;;;;;4973990;28;20490;-71
2023/01/09 07:28:15;;;;;;;1.20;1.00;;;6.90;98.00;;;;;;4974062;28;20481;-71
2023/01/09 07:30:42;;;;;;;1.20;1.00;;;6.90;98.00;;;;;;4972659;28;20462;-70
2023/01/09 07:33:09;;;;;;;1.37;1.10;;;6.90;98.00;;;;;;4973667;28;20960;-70
2023/01/09 07:35:37;;;;;;;1.20;1.03;;;6.90;98.00;;;;;;4973626;28;20462;-70
2023/01/09 07:38:05;;;;;;;1.10;1.00;;;6.90;98.00;;;;;;4971852;28;20477;-71
2023/01/09 07:40:35;;;;;;;1.10;1.00;;;6.90;98.00;;;;;;4973418;28;20529;-70
2023/01/09 07:43:02;;;;;;;1.10;1.00;;;7.00;98.00;;;;;;4973185;28;20464;-70
2023/01/09 07:45:29;;;;;;;1.10;0.90;;;6.90;98.00;;;;;;4973356;28;20457;-70
2023/01/09 07:47:56;;;;;;;1.20;1.00;;;6.90;98.00;;;;;;4973457;28;20469;-70
2023/01/09 07:50:23;;;;;;;1.57;1.20;;;7.00;98.00;;;;;;4972135;28;20482;-71
2023/01/09 07:52:50;;;;;;;1.20;1.00;;;6.90;98.00;;;;;;4973213;28;20465;-70
2023/01/09 07:55:19;;;;;;;1.20;1.00;;;7.00;98.00;;;;;;4972522;28;20844;-70
2023/01/09 07:57:49;;;;;;;1.10;0.90;;;7.00;98.00;;;;;;4973122;28;20493;-71
2023/01/09 08:00:19;;;;;;;1.77;1.40;;;7.10;98.00;;;;;;4973140;28;20563;-71
2023/01/09 08:02:50;;;;;;;1.20;1.00;;;7.10;98.00;;;;;;4973201;28;20489;-70
2023/01/09 08:05:19;;;;;;;1.30;1.10;;;7.00;98.00;;;;;;4973181;28;20458;-70
2023/01/09 08:07:46;;;;;;;1.10;1.00;;;7.00;98.00;;;;;;4973107;28;20823;-70
2023/01/09 08:10:14;;;;;;;1.40;1.00;;;7.00;98.00;;;;;;4973088;28;20459;-70
2023/01/09 08:12:44;;;;;;;2.23;1.30;;;7.00;98.00;;;;;;4972115;28;20932;-70
2023/01/09 08:15:14;;;;;;;1.10;0.90;;;7.10;98.00;;;;;;4972791;28;21072;-70
2023/01/09 08:17:42;;;;;;;1.20;1.00;;;7.10;98.00;;;;;;4972870;28;20556;-71
2023/01/09 08:20:11;;;;;;;1.10;0.93;;;7.10;98.00;;;;;;4973030;28;20462;-70
2023/01/09 08:22:38;;;;;;;1.10;1.00;;;7.10;98.00;;;;;;4972793;28;20458;-70
2023/01/09 08:25:06;;;;;;;1.17;1.03;;;7.10;98.00;;;;;;4972702;28;20465;-70
2023/01/09 08:27:33;;;;;;;1.10;0.90;;;7.10;98.00;;;;;;4972720;28;20472;-71
2023/01/09 08:30:02;;;;;;;1.30;1.13;;;7.10;98.00;;;;;;4955600;28;20524;-70
2023/01/09 08:32:30;;;;;;;1.17;1.00;;;7.00;98.00;;;;;;4972614;28;20462;-70
2023/01/09 08:34:57;;;;;;;1.10;1.00;;;7.00;98.00;;;;;;4971535;28;20453;-70
2023/01/09 08:37:24;;;;;;;1.23;1.00;;;7.00;98.00;;;;;;4972640;28;20492;-70
2023/01/09 08:39:52;;;;;;;1.20;1.10;;;6.90;98.00;;;;;;4972626;28;20467;-70
2023/01/09 08:47:54;;;;;;;1.10;1.00;;;6.80;98.00;;;;;;4972533;28;20521;-70
2023/01/09 08:50:21;;;;;;;1.40;1.20;;;6.80;98.00;;;;;;4972419;28;20465;-71
2023/01/09 08:52:48;;;;;;;2.13;1.60;;;6.70;98.00;;;;;;4972592;28;20466;-71
2023/01/09 08:55:15;;;;;;;1.60;1.00;;;6.70;98.00;;;;;;4972349;28;20961;-71
2023/01/09 08:57:48;;;;;;;1.10;1.00;;;6.70;98.00;;;;;;4972269;28;20481;-70
2023/01/09 09:00:23;;;;;;;1.10;0.90;;;6.70;98.00;;;;;;4972415;28;20561;-71
2023/01/09 09:02:52;;;;;;;1.10;0.90;;;6.80;98.00;;;;;;4972417;28;20782;-71
2023/01/09 09:05:20;;;;;;;1.47;1.20;;;6.70;98.00;;;;;;4972273;28;20546;-71
2023/01/09 09:07:48;;;;;;;1.40;1.10;;;6.80;98.00;;;;;;4972460;28;20966;-71
2023/01/09 09:10:16;;;;;;;1.50;1.13;;;6.80;98.00;;;;;;4972612;28;20457;-71
2023/01/09 09:12:44;;;;;;;1.10;1.00;;;6.80;98.00;;;;;;4972460;28;20451;-71
2023/01/09 09:15:15;;;;;;;2.73;1.10;;;6.90;98.00;;;;;;4972224;28;20517;-71
2023/01/09 09:17:44;;;;;;;1.50;1.00;;;7.00;98.00;;;;;;4972460;28;20496;-71
2023/01/09 09:20:12;;;;;;;1.10;0.90;;;7.00;98.00;;;;;;4972346;28;20463;-70
2023/01/09 09:22:39;;;;;;;1.97;1.20;;;7.00;98.00;;;;;;4970982;28;20932;-71
2023/01/09 09:25:07;;;;;;;1.50;1.10;;;7.00;98.00;;;;;;4972243;28;20565;-70
2023/01/09 09:27:35;;;;;;;1.40;1.20;;;6.90;98.00;;;;;;4975751;28;20459;-70
2023/01/09 09:30:02;;;;;;;1.10;1.00;;;6.90;98.00;;;;;;4976579;28;20463;-70
2023/01/09 09:32:30;;;;;;;1.33;1.07;;;6.90;98.00;;;;;;4976752;28;20459;-70
2023/01/09 09:34:59;;;;;;;3.87;1.30;;;6.90;98.00;;;;;;4976022;28;20463;-70
2023/01/09 09:37:26;;;;;;;1.50;1.13;;;7.00;98.00;;;;;;4974362;28;20512;-70
2023/01/09 09:39:53;;;;;;;1.30;0.97;;;7.00;98.00;;;;;;4965008;28;20461;-70
2023/01/09 09:45:48;;;;;;;2.80;1.27;;;7.10;98.00;;;;;;4974266;28;20515;-71
2023/01/09 09:48:27;;;;;;;3.53;1.30;;;7.20;98.00;;;;;;4981598;28;20456;-71
2023/01/09 09:51:18;;;;;;;1.20;1.10;;;7.20;98.00;;;;;;4972183;28;20847;-70
2023/01/09 09:53:51;;;;;;;1.83;1.10;;;7.30;98.00;;;;;;4979470;28;20460;-70
2023/01/09 09:56:22;;;;;;;1.10;1.00;;;7.30;98.00;;;;;;4959309;28;21326;-70
2023/01/09 09:58:54;;;;;;;1.20;1.10;;;7.40;98.00;;;;;;4990145;28;21394;-71
2023/01/09 10:01:27;;;;;;;1.70;1.30;;;7.40;98.00;;;;;;4983983;28;20468;-70
2023/01/09 10:03:59;;;;;;;1.30;1.00;;;7.50;98.00;;;;;;4965986;28;20542;-70
2023/01/09 10:06:29;;;;;;;1.10;1.00;;;7.60;98.00;;;;;;4993025;28;20467;-71
2023/01/09 10:09:04;;;;;;;1.10;1.00;;;7.70;98.00;;;;;;4984877;28;20558;-71
2023/01/09 10:11:38;;;;;;;1.40;1.10;;;7.80;98.00;;;;;;4987841;28;20508;-71
2023/01/09 10:14:05;;;;;;;1.10;0.90;;;7.80;98.00;;;;;;4983963;28;20521;-70
2023/01/09 10:16:55;;;;;;;1.20;1.00;;;7.90;98.00;;;;;;4988950;28;20474;-70
2023/01/09 10:19:37;;;;;;;1.20;1.00;;;8.00;98.00;;;;;;4984462;28;20913;-70
2023/01/09 10:22:18;;;;;;;2.07;1.13;;;8.00;98.00;;;;;;4965793;28;20458;-70
2023/01/09 10:24:58;;;;;;;1.10;1.00;;;8.10;98.00;;;;;;4976970;28;20464;-71
2023/01/09 10:27:36;;;;;;;1.60;0.93;;;8.10;98.00;;;;;;4982607;28;20509;-71
2023/01/09 10:30:28;;;;;;;4.50;1.13;;;8.10;98.00;;;;;;4978743;28;20461;-71
2023/01/09 10:33:04;;;;;;;1.20;1.10;;;8.20;98.00;;;;;;4987185;28;20472;-71
2023/01/09 10:35:56;;;;;;;2.40;1.10;;;8.20;98.00;;;;;;4973241;28;20470;-70
2023/01/09 10:38:31;;;;;;;1.40;1.10;;;8.30;98.00;;;;;;4978987;28;20499;-78
2023/01/09 10:41:05;;;;;;;1.10;1.00;;;8.40;98.00;;;;;;4990747;28;20481;-71
2023/01/09 10:43:39;;;;;;;1.77;1.20;;;8.50;98.00;;;;;;4990274;28;20462;-71
2023/01/09 10:46:10;;;;;;;1.13;0.90;;;8.70;98.00;;;;;;4976722;28;20460;-70
2023/01/09 10:48:41;;;;;;;1.13;1.00;;;8.80;98.00;;;;;;4986461;28;20471;-71
2023/01/09 10:51:18;;;;;;;1.20;1.00;;;8.90;98.00;;;;;;4988702;28;20475;-71
2023/01/09 10:53:51;;;;;;;1.57;1.10;;;9.00;98.00;;;;;;4982679;28;20462;-71
2023/01/09 10:56:24;;;;;;;1.30;1.10;;;9.00;98.00;;;;;;4971880;28;20518;-71
2023/01/09 10:58:52;;;;;;;1.50;1.00;;;8.90;98.00;;;;;;4981055;28;20498;-70
2023/01/09 11:01:24;;;;;;;1.40;1.40;;;8.90;98.00;;;;;;4990856;28;20472;-70
2023/01/09 11:03:52;;;;;;;1.40;1.10;;;9.00;98.00;;;;;;4955457;28;20558;-71
2023/01/09 11:06:22;;;;;;;2.40;1.17;;;9.00;98.00;;;;;;4972941;28;20468;-70
2023/01/09 11:08:55;;;;;;;1.30;1.00;;;8.90;98.00;;;;;;4980374;28;20518;-71
2023/01/09 11:11:33;;;;;;;2.23;1.00;;;8.90;98.00;;;;;;4990263;28;20466;-71
2023/01/09 11:14:14;;;;;;;1.20;1.00;;;9.00;98.00;;;;;;4981114;28;20561;-70
2023/01/09 11:16:52;;;;;;;3.63;1.77;;;9.10;98.00;;;;;;4972065;28;20500;-69
2023/01/09 11:19:19;;;;;;;1.10;0.93;;;9.20;98.00;;;;;;4981886;28;20567;-67
2023/01/09 11:21:47;;;;;;;1.20;1.10;;;9.20;98.00;;;;;;4982770;28;20555;-67
2023/01/09 11:24:33;;;;;;;2.40;1.20;;;9.30;98.00;;;;;;4947901;28;20960;-69
2023/01/09 11:27:30;;;;;;;3.30;1.20;;;9.40;98.00;;;;;;4977209;28;20460;-70
2023/01/09 11:30:14;;;;;;;3.47;1.63;;;9.50;98.00;;;;;;4974149;28;20971;-73
2023/01/09 11:32:42;;;;;;;1.20;1.00;;;9.60;98.00;;;;;;4974834;28;20912;-73
2023/01/09 11:35:18;;;;;;;1.33;1.03;;;9.70;98.00;;;;;;4989577;28;20468;-73
2023/01/09 11:37:47;;;;;;;1.20;1.00;;;9.60;98.00;;;;;;4989511;28;20746;-73
2023/01/09 11:40:22;;;;;;;1.10;1.00;;;9.50;98.00;;;;;;4977137;28;20866;-72
2023/01/09 11:43:06;;;;;;;1.77;1.10;;;9.30;98.00;;;;;;4988025;28;20531;-73
2023/01/09 11:45:35;;;;;;;1.10;0.90;;;9.20;98.00;;;;;;4971995;28;20476;-73
2023/01/09 11:48:03;;;;;;;1.10;1.00;;;9.20;98.00;;;;;;4971672;28;20936;-73
2023/01/09 11:50:31;;;;;;;1.30;1.17;;;9.30;98.00;;;;;;4968861;28;20567;-72
2023/01/09 11:53:17;;;;;;;1.30;1.10;;;9.40;98.00;;;;;;4977559;28;20481;-73
2023/01/09 11:55:47;;;;;;;1.10;1.00;;;9.40;98.00;;;;;;4982127;28;20860;-73
2023/01/09 11:58:15;;;;;;;1.90;1.07;;;9.50;98.00;;;;;;4988483;28;20875;-73
2023/01/09 12:00:52;;;;;;;1.10;1.00;;;9.40;98.00;;;;;;4990183;28;20965;-73
2023/01/09 12:03:30;;;;;;;1.17;1.00;;;9.50;98.00;;;;;;4966142;28;20455;-73
2023/01/09 12:06:04;;;;;;;1.20;1.00;;;9.50;98.00;;;;;;4973290;28;20493;-73
2023/01/09 12:08:47;;;;;;;1.20;0.97;;;9.50;98.00;;;;;;4988323;28;20475;-73
2023/01/09 12:11:36;;;;;;;1.20;1.00;;;9.50;98.00;;;;;;4974038;28;20471;-73
2023/01/09 12:14:35;;;;;;;1.20;1.00;;;9.60;98.00;;;;;;4972667;28;20865;-72
2023/01/09 12:17:23;;;;;;;1.20;1.00;;;9.60;98.00;;;;;;4970698;28;20964;-71
2023/01/09 12:20:24;;;;;;;1.20;1.00;;;9.60;98.00;;;;;;4955451;28;20525;-72
2023/01/09 12:23:00;;;;;;;1.50;1.10;;;9.60;98.00;;;;;;4985111;28;20455;-73
2023/01/09 12:25:40;;;;;;;7.53;1.40;;;9.60;98.00;;;;;;4989490;28;20475;-72
2023/01/09 12:28:45;;;;;;;1.20;1.10;;;9.70;98.00;;;;;;4979681;28;20492;-73
2023/01/09 12:31:35;;;;;;;2.47;1.20;;;9.70;98.00;;;;;;4975474;28;20464;-72
2023/01/09 12:34:15;;;;;;;1.20;1.10;;;9.60;98.00;;;;;;4971749;28;20472;-72
2023/01/09 12:36:52;;;;;;;1.27;1.10;;;9.60;98.00;;;;;;4989714;28;20460;-72
2023/01/09 12:39:31;;;;;;;1.20;1.00;;;9.60;98.00;;;;;;4970406;28;20523;-72
2023/01/09 12:42:22;;;;;;;1.50;1.10;;;9.60;98.00;;;;;;4970613;28;20481;-72
2023/01/09 12:44:55;;;;;;;1.30;1.00;;;9.60;98.00;;;;;;4976845;28;20562;-73
2023/01/09 12:47:43;;;;;;;1.20;1.20;;;9.50;98.00;;;;;;4989584;28;20460;-73
2023/01/09 12:50:39;;;;;;;1.20;1.00;;;9.50;98.00;;;;;;4979259;28;20504;-73
2023/01/09 12:53:18;;;;;;;1.97;1.00;;;9.50;98.00;;;;;;4980047;28;20469;-73
2023/01/09 12:55:50;;;;;;;1.20;1.00;;;9.40;98.00;;;;;;4980507;28;20463;-72
2023/01/09 12:58:31;;;;;;;1.20;1.00;;;9.30;98.00;;;;;;4988459;28;20496;-72
2023/01/09 13:01:02;;;;;;;2.17;1.00;;;9.40;98.00;;;;;;4989659;28;20475;-72
2023/01/09 13:03:36;;;;;;;2.90;1.50;;;9.40;98.00;;;;;;4994930;28;20942;-72
2023/01/09 13:06:11;;;;;;;1.30;1.10;;;9.50;98.00;;;;;;4988001;28;20466;-72
2023/01/09 13:08:41;;;;;;;1.40;1.00;;;9.50;98.00;;;;;;4995168;28;20505;-72
2023/01/09 13:11:14;;;;;;;1.57;1.20;;;9.50;98.00;;;;;;4979542;28;20476;-72
2023/01/09 13:13:47;;;;;;;1.60;1.10;;;9.40;98.00;;;;;;4960607;28;20997;-72
2023/01/09 13:16:19;;;;;;;1.10;1.00;;;9.30;98.00;;;;;;4995596;28;20518;-72
2023/01/09 13:18:51;;;;;;;2.67;1.70;;;9.30;98.00;;;;;;4977695;28;20496;-73
2023/01/09 13:21:19;;;;;;;1.83;1.20;;;9.30;98.00;;;;;;4996106;28;20463;-72
2023/01/09 13:23:51;;;;;;;1.40;1.20;;;9.30;98.00;;;;;;4977565;28;20974;-72
2023/01/09 13:26:22;;;;;;;1.50;1.10;;;9.10;98.00;;;;;;4985341;28;20470;-72
2023/01/09 13:28:53;;;;;;;2.40;1.50;;;9.00;98.00;;;;;;4977628;28;20479;-72
2023/01/09 13:31:49;;;;;;;1.20;1.00;;;9.00;98.00;;;;;;4988901;28;20461;-72